sensor_id;sensor_type;location;lat;lon;timestamp;P1;durP1;ratioP1;P2;durP2;ratioP2
22929;SDS011;11630;42.660;23.292;2023-04-24T00:01:06;17.23;;;10.73;;
22929;SDS011;11630;42.660;23.292;2023-04-24T00:03:36;16.37;;;10.87;;
22929;SDS011;11630;42.660;23.292;2023-04-24T00:06:07;14.57;;;10.93;;
22929;SDS011;11630;42.660;23.292;2023-04-24T00:08:38;12.20;;;10.93;;
22929;SDS011;11630;42.660;23.292;2023-04-24T00:11:09;12.20;;;10.90;;
22929;SDS011;11630;42.660;23.292;2023-04-24T00:13:46;16.93;;;11.37;;
22929;SDS011;11630;42.660;23.292;2023-04-24T00:16:17;12.73;;;10.83;;
22929;SDS011;11630;42.660;23.292;2023-04-24T00:18:48;15.67;;;11.00;;
22929;SDS011;11630;42.660;23.292;2023-04-24T00:21:18;11.43;;;9.30;;
22929;SDS011;11630;42.660;23.292;2023-04-24T00:23:49;17.43;;;10.93;;
22929;SDS011;11630;42.660;23.292;2023-04-24T00:26:20;16.07;;;10.63;;
22929;SDS011;11630;42.660;23.292;2023-04-24T00:28:51;15.93;;;10.47;;
22929;SDS011;11630;42.660;23.292;2023-04-24T00:31:21;11.90;;;10.60;;
22929;SDS011;11630;42.660;23.292;2023-04-24T00:33:52;15.23;;;10.80;;
22929;SDS011;11630;42.660;23.292;2023-04-24T00:36:24;19.60;;;9.93;;
22929;SDS011;11630;42.660;23.292;2023-04-24T00:38:54;14.43;;;10.57;;
22929;SDS011;11630;42.660;23.292;2023-04-24T00:41:27;17.80;;;10.37;;
22929;SDS011;11630;42.660;23.292;2023-04-24T00:44:16;20.70;;;10.07;;
22929;SDS011;11630;42.660;23.292;2023-04-24T00:46:50;14.70;;;9.30;;
22929;SDS011;11630;42.660;23.292;2023-04-24T00:49:24;15.07;;;9.90;;
22929;SDS011;11630;42.660;23.292;2023-04-24T00:51:54;14.93;;;9.67;;
22929;SDS011;11630;42.660;23.292;2023-04-24T00:54:26;17.63;;;10.37;;
22929;SDS011;11630;42.660;23.292;2023-04-24T00:56:56;13.77;;;10.67;;
22929;SDS011;11630;42.660;23.292;2023-04-24T00:59:27;20.87;;;10.37;;
22929;SDS011;11630;42.660;23.292;2023-04-24T01:01:58;20.37;;;11.33;;
22929;SDS011;11630;42.660;23.292;2023-04-24T01:04:29;15.60;;;9.73;;
22929;SDS011;11630;42.660;23.292;2023-04-24T01:07:00;14.33;;;10.13;;
22929;SDS011;11630;42.660;23.292;2023-04-24T01:09:41;14.40;;;9.73;;
22929;SDS011;11630;42.660;23.292;2023-04-24T01:12:09;13.17;;;10.93;;
22929;SDS011;11630;42.660;23.292;2023-04-24T01:14:40;15.40;;;10.90;;
22929;SDS011;11630;42.660;23.292;2023-04-24T01:17:11;16.37;;;11.90;;
22929;SDS011;11630;42.660;23.292;2023-04-24T01:19:42;14.53;;;12.03;;
22929;SDS011;11630;42.660;23.292;2023-04-24T01:22:14;15.83;;;11.10;;
22929;SDS011;11630;42.660;23.292;2023-04-24T01:24:45;15.63;;;11.20;;
22929;SDS011;11630;42.660;23.292;2023-04-24T01:27:16;15.77;;;10.30;;
22929;SDS011;11630;42.660;23.292;2023-04-24T01:29:46;11.73;;;10.40;;
22929;SDS011;11630;42.660;23.292;2023-04-24T01:32:17;7.77;;;6.63;;
22929;SDS011;11630;42.660;23.292;2023-04-24T01:34:48;18.57;;;10.23;;
22929;SDS011;11630;42.660;23.292;2023-04-24T01:37:19;15.17;;;10.23;;
22929;SDS011;11630;42.660;23.292;2023-04-24T01:39:50;15.43;;;9.60;;
22929;SDS011;11630;42.660;23.292;2023-04-24T01:42:21;9.63;;;8.63;;
22929;SDS011;11630;42.660;23.292;2023-04-24T01:44:52;12.77;;;8.10;;
22929;SDS011;11630;42.660;23.292;2023-04-24T01:47:23;12.23;;;9.07;;
22929;SDS011;11630;42.660;23.292;2023-04-24T01:49:55;12.20;;;8.10;;
22929;SDS011;11630;42.660;23.292;2023-04-24T01:52:24;15.50;;;9.20;;
22929;SDS011;11630;42.660;23.292;2023-04-24T01:54:55;11.27;;;8.43;;
22929;SDS011;11630;42.660;23.292;2023-04-24T01:57:26;9.90;;;8.33;;
22929;SDS011;11630;42.660;23.292;2023-04-24T01:59:56;10.37;;;9.17;;
22929;SDS011;11630;42.660;23.292;2023-04-24T02:02:27;12.67;;;8.00;;
22929;SDS011;11630;42.660;23.292;2023-04-24T02:04:58;15.70;;;9.07;;
22929;SDS011;11630;42.660;23.292;2023-04-24T02:07:29;9.53;;;8.23;;
22929;SDS011;11630;42.660;23.292;2023-04-24T02:10:00;16.70;;;9.90;;
22929;SDS011;11630;42.660;23.292;2023-04-24T02:12:32;13.93;;;9.77;;
22929;SDS011;11630;42.660;23.292;2023-04-24T02:15:03;13.30;;;10.27;;
22929;SDS011;11630;42.660;23.292;2023-04-24T02:17:33;14.50;;;9.83;;
22929;SDS011;11630;42.660;23.292;2023-04-24T02:20:03;20.60;;;10.73;;
22929;SDS011;11630;42.660;23.292;2023-04-24T02:22:37;13.43;;;11.57;;
22929;SDS011;11630;42.660;23.292;2023-04-24T02:25:07;16.07;;;12.33;;
22929;SDS011;11630;42.660;23.292;2023-04-24T02:27:38;16.07;;;12.50;;
22929;SDS011;11630;42.660;23.292;2023-04-24T02:30:09;15.67;;;12.23;;
22929;SDS011;11630;42.660;23.292;2023-04-24T02:32:39;14.10;;;10.63;;
22929;SDS011;11630;42.660;23.292;2023-04-24T02:35:13;16.13;;;11.30;;
22929;SDS011;11630;42.660;23.292;2023-04-24T02:37:44;22.50;;;11.87;;
22929;SDS011;11630;42.660;23.292;2023-04-24T02:40:15;17.67;;;11.87;;
22929;SDS011;11630;42.660;23.292;2023-04-24T02:42:45;11.60;;;8.90;;
22929;SDS011;11630;42.660;23.292;2023-04-24T02:45:15;10.17;;;9.03;;
22929;SDS011;11630;42.660;23.292;2023-04-24T02:47:46;14.93;;;10.00;;
22929;SDS011;11630;42.660;23.292;2023-04-24T02:50:17;15.97;;;11.13;;
22929;SDS011;11630;42.660;23.292;2023-04-24T02:52:48;13.07;;;10.43;;
22929;SDS011;11630;42.660;23.292;2023-04-24T02:55:19;14.97;;;11.67;;
22929;SDS011;11630;42.660;23.292;2023-04-24T02:57:50;13.90;;;11.60;;
22929;SDS011;11630;42.660;23.292;2023-04-24T03:00:21;15.80;;;11.17;;
22929;SDS011;11630;42.660;23.292;2023-04-24T03:02:52;11.90;;;10.60;;
22929;SDS011;11630;42.660;23.292;2023-04-24T03:05:22;16.20;;;12.77;;
22929;SDS011;11630;42.660;23.292;2023-04-24T03:07:52;14.57;;;12.43;;
22929;SDS011;11630;42.660;23.292;2023-04-24T03:10:23;15.33;;;11.77;;
22929;SDS011;11630;42.660;23.292;2023-04-24T03:12:53;17.37;;;12.47;;
22929;SDS011;11630;42.660;23.292;2023-04-24T03:15:25;13.40;;;11.70;;
22929;SDS011;11630;42.660;23.292;2023-04-24T03:17:57;14.50;;;11.70;;
22929;SDS011;11630;42.660;23.292;2023-04-24T03:20:28;15.80;;;11.70;;
22929;SDS011;11630;42.660;23.292;2023-04-24T03:22:59;14.20;;;11.27;;
22929;SDS011;11630;42.660;23.292;2023-04-24T03:25:29;19.03;;;12.13;;
22929;SDS011;11630;42.660;23.292;2023-04-24T03:28:00;13.53;;;11.27;;
22929;SDS011;11630;42.660;23.292;2023-04-24T03:30:31;14.73;;;11.43;;
22929;SDS011;11630;42.660;23.292;2023-04-24T03:33:01;17.50;;;11.93;;
22929;SDS011;11630;42.660;23.292;2023-04-24T03:35:32;15.37;;;11.20;;
22929;SDS011;11630;42.660;23.292;2023-04-24T03:38:04;13.50;;;10.87;;
22929;SDS011;11630;42.660;23.292;2023-04-24T03:40:34;12.10;;;10.80;;
22929;SDS011;11630;42.660;23.292;2023-04-24T03:43:05;18.77;;;11.67;;
22929;SDS011;11630;42.660;23.292;2023-04-24T03:45:36;12.83;;;11.40;;
22929;SDS011;11630;42.660;23.292;2023-04-24T03:48:07;12.73;;;10.07;;
22929;SDS011;11630;42.660;23.292;2023-04-24T03:50:38;11.90;;;10.20;;
22929;SDS011;11630;42.660;23.292;2023-04-24T03:53:09;12.43;;;9.87;;
22929;SDS011;11630;42.660;23.292;2023-04-24T03:55:39;16.23;;;10.30;;
22929;SDS011;11630;42.660;23.292;2023-04-24T03:58:09;12.53;;;11.23;;
22929;SDS011;11630;42.660;23.292;2023-04-24T04:00:39;12.77;;;10.00;;
22929;SDS011;11630;42.660;23.292;2023-04-24T04:03:10;12.07;;;9.50;;
22929;SDS011;11630;42.660;23.292;2023-04-24T04:05:40;21.13;;;11.03;;
22929;SDS011;11630;42.660;23.292;2023-04-24T04:08:11;26.43;;;10.73;;
22929;SDS011;11630;42.660;23.292;2023-04-24T04:10:41;14.33;;;10.73;;
22929;SDS011;11630;42.660;23.292;2023-04-24T04:13:13;12.30;;;9.83;;
22929;SDS011;11630;42.660;23.292;2023-04-24T04:15:44;14.67;;;9.73;;
22929;SDS011;11630;42.660;23.292;2023-04-24T04:18:14;13.43;;;10.13;;
22929;SDS011;11630;42.660;23.292;2023-04-24T04:20:44;15.83;;;9.50;;
22929;SDS011;11630;42.660;23.292;2023-04-24T04:23:15;14.90;;;10.10;;
22929;SDS011;11630;42.660;23.292;2023-04-24T04:25:46;15.73;;;9.90;;
22929;SDS011;11630;42.660;23.292;2023-04-24T04:28:17;11.97;;;8.97;;
22929;SDS011;11630;42.660;23.292;2023-04-24T04:30:48;16.50;;;10.37;;
22929;SDS011;11630;42.660;23.292;2023-04-24T04:33:22;10.97;;;9.40;;
22929;SDS011;11630;42.660;23.292;2023-04-24T04:35:51;15.37;;;9.43;;
22929;SDS011;11630;42.660;23.292;2023-04-24T04:38:22;12.07;;;9.37;;
22929;SDS011;11630;42.660;23.292;2023-04-24T04:40:53;16.33;;;9.80;;
22929;SDS011;11630;42.660;23.292;2023-04-24T04:43:26;29.40;;;11.93;;
22929;SDS011;11630;42.660;23.292;2023-04-24T04:45:57;12.10;;;9.33;;
22929;SDS011;11630;42.660;23.292;2023-04-24T04:48:27;22.10;;;10.97;;
22929;SDS011;11630;42.660;23.292;2023-04-24T04:50:58;24.60;;;11.33;;
22929;SDS011;11630;42.660;23.292;2023-04-24T04:53:30;13.70;;;9.20;;
22929;SDS011;11630;42.660;23.292;2023-04-24T04:56:01;16.47;;;10.30;;
22929;SDS011;11630;42.660;23.292;2023-04-24T04:58:32;15.13;;;9.27;;
22929;SDS011;11630;42.660;23.292;2023-04-24T05:01:01;15.33;;;9.43;;
22929;SDS011;11630;42.660;23.292;2023-04-24T05:03:32;16.93;;;10.30;;
22929;SDS011;11630;42.660;23.292;2023-04-24T05:06:03;19.47;;;10.33;;
22929;SDS011;11630;42.660;23.292;2023-04-24T05:08:35;21.00;;;9.53;;
22929;SDS011;11630;42.660;23.292;2023-04-24T05:11:04;13.73;;;10.27;;
22929;SDS011;11630;42.660;23.292;2023-04-24T05:13:35;20.00;;;11.00;;
22929;SDS011;11630;42.660;23.292;2023-04-24T05:16:06;27.47;;;11.70;;
22929;SDS011;11630;42.660;23.292;2023-04-24T05:18:36;16.53;;;10.80;;
22929;SDS011;11630;42.660;23.292;2023-04-24T05:21:07;18.30;;;8.60;;
22929;SDS011;11630;42.660;23.292;2023-04-24T05:23:37;13.87;;;7.50;;
22929;SDS011;11630;42.660;23.292;2023-04-24T05:26:08;11.67;;;6.90;;
22929;SDS011;11630;42.660;23.292;2023-04-24T05:28:38;14.50;;;7.43;;
22929;SDS011;11630;42.660;23.292;2023-04-24T05:31:09;8.03;;;6.20;;
22929;SDS011;11630;42.660;23.292;2023-04-24T05:33:41;12.03;;;6.77;;
22929;SDS011;11630;42.660;23.292;2023-04-24T05:36:11;14.90;;;6.97;;
22929;SDS011;11630;42.660;23.292;2023-04-24T05:38:42;15.83;;;8.30;;
22929;SDS011;11630;42.660;23.292;2023-04-24T05:41:13;10.57;;;6.77;;
22929;SDS011;11630;42.660;23.292;2023-04-24T05:43:43;8.87;;;6.57;;
22929;SDS011;11630;42.660;23.292;2023-04-24T05:46:14;13.07;;;7.27;;
22929;SDS011;11630;42.660;23.292;2023-04-24T05:48:44;21.33;;;13.87;;
22929;SDS011;11630;42.660;23.292;2023-04-24T05:51:14;10.30;;;6.53;;
22929;SDS011;11630;42.660;23.292;2023-04-24T05:53:44;13.17;;;7.27;;
22929;SDS011;11630;42.660;23.292;2023-04-24T05:56:15;9.47;;;7.37;;
22929;SDS011;11630;42.660;23.292;2023-04-24T05:58:47;12.67;;;7.50;;
22929;SDS011;11630;42.660;23.292;2023-04-24T06:01:18;13.93;;;7.20;;
22929;SDS011;11630;42.660;23.292;2023-04-24T06:03:48;8.23;;;6.63;;
22929;SDS011;11630;42.660;23.292;2023-04-24T06:06:19;12.00;;;7.83;;
22929;SDS011;11630;42.660;23.292;2023-04-24T06:08:51;8.07;;;6.33;;
22929;SDS011;11630;42.660;23.292;2023-04-24T06:11:22;10.67;;;6.27;;
22929;SDS011;11630;42.660;23.292;2023-04-24T06:13:52;9.93;;;7.77;;
22929;SDS011;11630;42.660;23.292;2023-04-24T06:16:22;14.47;;;7.63;;
22929;SDS011;11630;42.660;23.292;2023-04-24T06:18:54;13.03;;;8.87;;
22929;SDS011;11630;42.660;23.292;2023-04-24T06:21:25;9.73;;;7.87;;
22929;SDS011;11630;42.660;23.292;2023-04-24T06:23:56;14.83;;;7.90;;
22929;SDS011;11630;42.660;23.292;2023-04-24T06:26:26;20.27;;;9.53;;
22929;SDS011;11630;42.660;23.292;2023-04-24T06:28:57;15.10;;;9.30;;
22929;SDS011;11630;42.660;23.292;2023-04-24T06:31:28;16.93;;;8.23;;
22929;SDS011;11630;42.660;23.292;2023-04-24T06:33:59;13.20;;;8.47;;
22929;SDS011;11630;42.660;23.292;2023-04-24T06:36:30;11.40;;;8.07;;
22929;SDS011;11630;42.660;23.292;2023-04-24T06:39:01;14.53;;;8.77;;
22929;SDS011;11630;42.660;23.292;2023-04-24T06:41:32;13.33;;;8.70;;
22929;SDS011;11630;42.660;23.292;2023-04-24T06:44:03;17.30;;;9.13;;
22929;SDS011;11630;42.660;23.292;2023-04-24T06:46:34;14.07;;;8.80;;
22929;SDS011;11630;42.660;23.292;2023-04-24T06:49:05;12.90;;;9.97;;
22929;SDS011;11630;42.660;23.292;2023-04-24T06:51:36;14.77;;;9.57;;
22929;SDS011;11630;42.660;23.292;2023-04-24T06:54:07;12.23;;;9.17;;
22929;SDS011;11630;42.660;23.292;2023-04-24T06:56:39;16.17;;;9.77;;
22929;SDS011;11630;42.660;23.292;2023-04-24T06:59:08;16.67;;;9.13;;
22929;SDS011;11630;42.660;23.292;2023-04-24T07:01:39;19.27;;;9.33;;
22929;SDS011;11630;42.660;23.292;2023-04-24T07:04:11;17.20;;;9.20;;
22929;SDS011;11630;42.660;23.292;2023-04-24T07:06:41;15.57;;;9.63;;
22929;SDS011;11630;42.660;23.292;2023-04-24T07:09:12;21.77;;;11.70;;
22929;SDS011;11630;42.660;23.292;2023-04-24T07:11:42;14.23;;;8.93;;
22929;SDS011;11630;42.660;23.292;2023-04-24T07:14:13;20.17;;;10.17;;
22929;SDS011;11630;42.660;23.292;2023-04-24T07:16:45;17.73;;;10.73;;
22929;SDS011;11630;42.660;23.292;2023-04-24T07:19:15;25.23;;;9.80;;
22929;SDS011;11630;42.660;23.292;2023-04-24T07:21:46;15.97;;;8.60;;
22929;SDS011;11630;42.660;23.292;2023-04-24T07:24:16;12.00;;;9.63;;
22929;SDS011;11630;42.660;23.292;2023-04-24T07:26:47;15.20;;;8.47;;
22929;SDS011;11630;42.660;23.292;2023-04-24T07:29:19;8.30;;;7.17;;
22929;SDS011;11630;42.660;23.292;2023-04-24T07:31:50;21.90;;;8.43;;
22929;SDS011;11630;42.660;23.292;2023-04-24T07:34:21;11.23;;;8.03;;
22929;SDS011;11630;42.660;23.292;2023-04-24T07:36:53;6.93;;;6.23;;
22929;SDS011;11630;42.660;23.292;2023-04-24T07:39:24;9.00;;;6.70;;
22929;SDS011;11630;42.660;23.292;2023-04-24T07:41:55;10.80;;;5.70;;
22929;SDS011;11630;42.660;23.292;2023-04-24T07:44:26;12.77;;;6.70;;
22929;SDS011;11630;42.660;23.292;2023-04-24T07:46:57;24.37;;;7.07;;
22929;SDS011;11630;42.660;23.292;2023-04-24T07:49:28;11.67;;;6.20;;
22929;SDS011;11630;42.660;23.292;2023-04-24T07:51:58;6.90;;;6.07;;
22929;SDS011;11630;42.660;23.292;2023-04-24T07:54:29;11.73;;;6.90;;
22929;SDS011;11630;42.660;23.292;2023-04-24T07:57:00;17.60;;;7.47;;
22929;SDS011;11630;42.660;23.292;2023-04-24T07:59:30;10.60;;;7.83;;
22929;SDS011;11630;42.660;23.292;2023-04-24T08:02:02;12.50;;;7.97;;
22929;SDS011;11630;42.660;23.292;2023-04-24T08:04:32;14.70;;;7.70;;
22929;SDS011;11630;42.660;23.292;2023-04-24T08:07:03;19.47;;;8.10;;
22929;SDS011;11630;42.660;23.292;2023-04-24T08:09:34;10.70;;;6.77;;
22929;SDS011;11630;42.660;23.292;2023-04-24T08:12:04;14.17;;;7.30;;
22929;SDS011;11630;42.660;23.292;2023-04-24T08:14:35;18.77;;;7.60;;
22929;SDS011;11630;42.660;23.292;2023-04-24T08:17:07;10.57;;;8.03;;
22929;SDS011;11630;42.660;23.292;2023-04-24T08:19:39;11.07;;;7.40;;
22929;SDS011;11630;42.660;23.292;2023-04-24T08:22:16;12.00;;;7.17;;
22929;SDS011;11630;42.660;23.292;2023-04-24T08:24:42;10.93;;;7.53;;
22929;SDS011;11630;42.660;23.292;2023-04-24T08:27:12;8.37;;;7.13;;
22929;SDS011;11630;42.660;23.292;2023-04-24T08:29:43;13.07;;;8.07;;
22929;SDS011;11630;42.660;23.292;2023-04-24T08:32:15;22.20;;;8.63;;
22929;SDS011;11630;42.660;23.292;2023-04-24T08:34:45;15.43;;;8.40;;
22929;SDS011;11630;42.660;23.292;2023-04-24T08:37:16;11.77;;;7.87;;
22929;SDS011;11630;42.660;23.292;2023-04-24T08:39:47;15.90;;;8.37;;
22929;SDS011;11630;42.660;23.292;2023-04-24T08:42:18;14.43;;;8.50;;
22929;SDS011;11630;42.660;23.292;2023-04-24T08:44:50;8.53;;;7.40;;
22929;SDS011;11630;42.660;23.292;2023-04-24T08:47:20;12.97;;;7.67;;
22929;SDS011;11630;42.660;23.292;2023-04-24T08:49:55;12.13;;;7.23;;
22929;SDS011;11630;42.660;23.292;2023-04-24T08:52:26;12.27;;;7.07;;
22929;SDS011;11630;42.660;23.292;2023-04-24T08:54:58;11.60;;;7.07;;
22929;SDS011;11630;42.660;23.292;2023-04-24T08:57:30;9.83;;;7.43;;
22929;SDS011;11630;42.660;23.292;2023-04-24T09:00:01;15.60;;;6.53;;
22929;SDS011;11630;42.660;23.292;2023-04-24T09:02:32;11.47;;;6.83;;
22929;SDS011;11630;42.660;23.292;2023-04-24T09:05:02;11.53;;;6.90;;
22929;SDS011;11630;42.660;23.292;2023-04-24T09:07:33;8.40;;;6.43;;
22929;SDS011;11630;42.660;23.292;2023-04-24T09:10:08;11.90;;;6.77;;
22929;SDS011;11630;42.660;23.292;2023-04-24T09:12:39;13.10;;;7.07;;
22929;SDS011;11630;42.660;23.292;2023-04-24T09:15:10;6.83;;;6.13;;
22929;SDS011;11630;42.660;23.292;2023-04-24T09:17:42;11.77;;;6.13;;
22929;SDS011;11630;42.660;23.292;2023-04-24T09:20:13;11.93;;;6.77;;
22929;SDS011;11630;42.660;23.292;2023-04-24T09:22:44;15.83;;;7.50;;
22929;SDS011;11630;42.660;23.292;2023-04-24T09:25:16;12.50;;;7.43;;
22929;SDS011;11630;42.660;23.292;2023-04-24T09:27:46;11.77;;;6.70;;
22929;SDS011;11630;42.660;23.292;2023-04-24T09:30:21;18.20;;;7.83;;
22929;SDS011;11630;42.660;23.292;2023-04-24T09:33:09;9.77;;;6.23;;
22929;SDS011;11630;42.660;23.292;2023-04-24T09:35:48;9.20;;;6.40;;
22929;SDS011;11630;42.660;23.292;2023-04-24T09:38:20;14.30;;;5.83;;
22929;SDS011;11630;42.660;23.292;2023-04-24T09:41:00;6.63;;;5.17;;
22929;SDS011;11630;42.660;23.292;2023-04-24T09:43:32;10.77;;;6.00;;
22929;SDS011;11630;42.660;23.292;2023-04-24T09:46:07;7.40;;;6.07;;
22929;SDS011;11630;42.660;23.292;2023-04-24T09:48:38;11.67;;;6.43;;
22929;SDS011;11630;42.660;23.292;2023-04-24T09:51:08;14.67;;;6.80;;
22929;SDS011;11630;42.660;23.292;2023-04-24T09:53:38;13.70;;;5.53;;
22929;SDS011;11630;42.660;23.292;2023-04-24T09:56:10;9.43;;;6.23;;
22929;SDS011;11630;42.660;23.292;2023-04-24T09:58:41;9.93;;;5.53;;
22929;SDS011;11630;42.660;23.292;2023-04-24T10:01:12;11.73;;;5.70;;
22929;SDS011;11630;42.660;23.292;2023-04-24T10:03:43;13.17;;;6.17;;
22929;SDS011;11630;42.660;23.292;2023-04-24T10:06:14;8.20;;;5.10;;
22929;SDS011;11630;42.660;23.292;2023-04-24T10:08:48;7.47;;;5.83;;
22929;SDS011;11630;42.660;23.292;2023-04-24T10:11:28;12.57;;;6.07;;
22929;SDS011;11630;42.660;23.292;2023-04-24T10:13:59;8.07;;;4.67;;
22929;SDS011;11630;42.660;23.292;2023-04-24T10:16:30;9.77;;;4.47;;
22929;SDS011;11630;42.660;23.292;2023-04-24T10:19:02;7.77;;;4.83;;
22929;SDS011;11630;42.660;23.292;2023-04-24T10:21:32;7.47;;;5.00;;
22929;SDS011;11630;42.660;23.292;2023-04-24T10:24:03;8.67;;;5.13;;
22929;SDS011;11630;42.660;23.292;2023-04-24T10:26:35;5.03;;;4.37;;
22929;SDS011;11630;42.660;23.292;2023-04-24T10:29:07;5.33;;;4.30;;
22929;SDS011;11630;42.660;23.292;2023-04-24T10:31:39;9.80;;;5.57;;
22929;SDS011;11630;42.660;23.292;2023-04-24T10:34:15;8.43;;;4.67;;
22929;SDS011;11630;42.660;23.292;2023-04-24T10:36:47;10.43;;;4.10;;
22929;SDS011;11630;42.660;23.292;2023-04-24T10:39:20;7.27;;;4.97;;
22929;SDS011;11630;42.660;23.292;2023-04-24T10:41:53;12.30;;;4.37;;
22929;SDS011;11630;42.660;23.292;2023-04-24T10:44:24;7.27;;;4.10;;
22929;SDS011;11630;42.660;23.292;2023-04-24T10:46:55;5.47;;;4.57;;
22929;SDS011;11630;42.660;23.292;2023-04-24T10:49:30;10.77;;;4.47;;
22929;SDS011;11630;42.660;23.292;2023-04-24T10:52:02;8.97;;;3.30;;
22929;SDS011;11630;42.660;23.292;2023-04-24T11:00:10;8.90;;;3.90;;
22929;SDS011;11630;42.660;23.292;2023-04-24T11:02:52;3.77;;;3.37;;
22929;SDS011;11630;42.660;23.292;2023-04-24T11:05:21;20.27;;;5.60;;
22929;SDS011;11630;42.660;23.292;2023-04-24T11:10:44;9.10;;;4.30;;
22929;SDS011;11630;42.660;23.292;2023-04-24T11:13:16;5.87;;;3.77;;
22929;SDS011;11630;42.660;23.292;2023-04-24T11:16:11;6.80;;;3.67;;
22929;SDS011;11630;42.660;23.292;2023-04-24T11:18:38;8.93;;;4.33;;
22929;SDS011;11630;42.660;23.292;2023-04-24T11:21:16;18.00;;;3.50;;
22929;SDS011;11630;42.660;23.292;2023-04-24T11:23:46;4.23;;;3.60;;
22929;SDS011;11630;42.660;23.292;2023-04-24T11:26:19;9.23;;;4.97;;
22929;SDS011;11630;42.660;23.292;2023-04-24T11:28:52;2.50;;;2.30;;
22929;SDS011;11630;42.660;23.292;2023-04-24T11:31:38;4.03;;;3.00;;
22929;SDS011;11630;42.660;23.292;2023-04-24T11:34:10;3.10;;;2.50;;
22929;SDS011;11630;42.660;23.292;2023-04-24T11:36:45;2.70;;;2.40;;
22929;SDS011;11630;42.660;23.292;2023-04-24T11:39:18;3.97;;;3.23;;
22929;SDS011;11630;42.660;23.292;2023-04-24T11:41:51;4.10;;;3.60;;
22929;SDS011;11630;42.660;23.292;2023-04-24T11:44:22;5.40;;;4.00;;
22929;SDS011;11630;42.660;23.292;2023-04-24T11:46:55;8.93;;;4.77;;
22929;SDS011;11630;42.660;23.292;2023-04-24T11:49:25;5.63;;;4.80;;
22929;SDS011;11630;42.660;23.292;2023-04-24T11:51:56;8.27;;;4.27;;
22929;SDS011;11630;42.660;23.292;2023-04-24T11:54:28;6.47;;;4.33;;
22929;SDS011;11630;42.660;23.292;2023-04-24T11:56:58;5.40;;;4.90;;
22929;SDS011;11630;42.660;23.292;2023-04-24T11:59:31;6.03;;;4.70;;
22929;SDS011;11630;42.660;23.292;2023-04-24T12:02:05;7.67;;;5.20;;
22929;SDS011;11630;42.660;23.292;2023-04-24T12:04:39;5.40;;;3.70;;
22929;SDS011;11630;42.660;23.292;2023-04-24T12:07:10;6.43;;;3.93;;
22929;SDS011;11630;42.660;23.292;2023-04-24T12:09:47;13.73;;;7.40;;
22929;SDS011;11630;42.660;23.292;2023-04-24T12:12:19;5.50;;;3.83;;
22929;SDS011;11630;42.660;23.292;2023-04-24T12:14:58;7.93;;;4.10;;
22929;SDS011;11630;42.660;23.292;2023-04-24T12:17:27;4.63;;;3.80;;
22929;SDS011;11630;42.660;23.292;2023-04-24T12:20:04;4.67;;;4.27;;
22929;SDS011;11630;42.660;23.292;2023-04-24T12:22:57;4.07;;;3.77;;
22929;SDS011;11630;42.660;23.292;2023-04-24T12:25:24;3.17;;;2.20;;
22929;SDS011;11630;42.660;23.292;2023-04-24T12:30:41;5.63;;;3.50;;
22929;SDS011;11630;42.660;23.292;2023-04-24T12:33:20;5.47;;;2.90;;
22929;SDS011;11630;42.660;23.292;2023-04-24T12:35:52;5.13;;;3.50;;
22929;SDS011;11630;42.660;23.292;2023-04-24T12:38:23;6.50;;;3.33;;
22929;SDS011;11630;42.660;23.292;2023-04-24T12:41:04;17.93;;;4.63;;
22929;SDS011;11630;42.660;23.292;2023-04-24T12:43:35;7.20;;;3.87;;
22929;SDS011;11630;42.660;23.292;2023-04-24T12:46:07;4.90;;;3.63;;
22929;SDS011;11630;42.660;23.292;2023-04-24T12:48:37;4.97;;;3.90;;
22929;SDS011;11630;42.660;23.292;2023-04-24T12:51:11;12.10;;;4.63;;
22929;SDS011;11630;42.660;23.292;2023-04-24T12:53:42;5.17;;;3.93;;
22929;SDS011;11630;42.660;23.292;2023-04-24T12:56:13;7.93;;;4.30;;
22929;SDS011;11630;42.660;23.292;2023-04-24T12:58:44;5.53;;;2.93;;
22929;SDS011;11630;42.660;23.292;2023-04-24T13:01:15;4.73;;;3.73;;
22929;SDS011;11630;42.660;23.292;2023-04-24T13:03:46;8.30;;;4.17;;
22929;SDS011;11630;42.660;23.292;2023-04-24T13:06:18;9.43;;;4.17;;
22929;SDS011;11630;42.660;23.292;2023-04-24T13:08:48;6.23;;;3.20;;
22929;SDS011;11630;42.660;23.292;2023-04-24T13:11:19;3.67;;;3.37;;
22929;SDS011;11630;42.660;23.292;2023-04-24T13:13:50;5.73;;;3.73;;
22929;SDS011;11630;42.660;23.292;2023-04-24T13:16:20;12.00;;;3.63;;
22929;SDS011;11630;42.660;23.292;2023-04-24T13:18:51;4.90;;;3.30;;
22929;SDS011;11630;42.660;23.292;2023-04-24T13:21:22;4.53;;;3.37;;
22929;SDS011;11630;42.660;23.292;2023-04-24T13:23:53;4.77;;;3.97;;
22929;SDS011;11630;42.660;23.292;2023-04-24T13:26:23;6.73;;;3.50;;
22929;SDS011;11630;42.660;23.292;2023-04-24T13:28:54;4.03;;;3.00;;
22929;SDS011;11630;42.660;23.292;2023-04-24T13:31:25;5.37;;;4.50;;
22929;SDS011;11630;42.660;23.292;2023-04-24T13:33:55;10.80;;;3.97;;
22929;SDS011;11630;42.660;23.292;2023-04-24T13:36:26;4.73;;;4.00;;
22929;SDS011;11630;42.660;23.292;2023-04-24T13:38:58;4.10;;;3.43;;
22929;SDS011;11630;42.660;23.292;2023-04-24T13:41:29;5.13;;;3.43;;
22929;SDS011;11630;42.660;23.292;2023-04-24T13:44:02;6.43;;;3.67;;
22929;SDS011;11630;42.660;23.292;2023-04-24T13:46:33;6.87;;;3.63;;
22929;SDS011;11630;42.660;23.292;2023-04-24T13:49:05;10.57;;;4.17;;
22929;SDS011;11630;42.660;23.292;2023-04-24T13:51:35;6.30;;;3.10;;
22929;SDS011;11630;42.660;23.292;2023-04-24T13:54:06;7.90;;;4.07;;
22929;SDS011;11630;42.660;23.292;2023-04-24T13:56:36;8.77;;;3.33;;
22929;SDS011;11630;42.660;23.292;2023-04-24T13:59:08;4.17;;;3.47;;
22929;SDS011;11630;42.660;23.292;2023-04-24T14:01:39;6.07;;;3.43;;
22929;SDS011;11630;42.660;23.292;2023-04-24T14:04:10;3.50;;;3.20;;
22929;SDS011;11630;42.660;23.292;2023-04-24T14:06:41;4.97;;;2.97;;
22929;SDS011;11630;42.660;23.292;2023-04-24T14:09:12;4.07;;;2.57;;
22929;SDS011;11630;42.660;23.292;2023-04-24T14:11:43;7.40;;;3.40;;
22929;SDS011;11630;42.660;23.292;2023-04-24T14:14:14;6.73;;;3.43;;
22929;SDS011;11630;42.660;23.292;2023-04-24T14:16:45;3.87;;;3.20;;
22929;SDS011;11630;42.660;23.292;2023-04-24T14:19:16;4.30;;;3.63;;
22929;SDS011;11630;42.660;23.292;2023-04-24T14:21:48;4.23;;;3.17;;
22929;SDS011;11630;42.660;23.292;2023-04-24T14:24:18;6.50;;;3.60;;
22929;SDS011;11630;42.660;23.292;2023-04-24T14:26:50;8.67;;;4.00;;
22929;SDS011;11630;42.660;23.292;2023-04-24T14:29:20;12.17;;;3.80;;
22929;SDS011;11630;42.660;23.292;2023-04-24T14:31:52;5.20;;;3.90;;
22929;SDS011;11630;42.660;23.292;2023-04-24T14:34:22;4.63;;;3.40;;
22929;SDS011;11630;42.660;23.292;2023-04-24T14:36:55;17.87;;;3.93;;
22929;SDS011;11630;42.660;23.292;2023-04-24T14:39:26;18.13;;;4.53;;
22929;SDS011;11630;42.660;23.292;2023-04-24T14:41:57;9.30;;;3.97;;
22929;SDS011;11630;42.660;23.292;2023-04-24T14:44:29;5.43;;;3.87;;
22929;SDS011;11630;42.660;23.292;2023-04-24T14:46:59;9.27;;;4.20;;
22929;SDS011;11630;42.660;23.292;2023-04-24T14:49:31;12.70;;;3.63;;
22929;SDS011;11630;42.660;23.292;2023-04-24T14:52:03;11.20;;;4.40;;
22929;SDS011;11630;42.660;23.292;2023-04-24T14:54:34;8.70;;;4.60;;
22929;SDS011;11630;42.660;23.292;2023-04-24T14:57:05;9.33;;;4.00;;
22929;SDS011;11630;42.660;23.292;2023-04-24T14:59:38;8.83;;;5.07;;